Terminal Aerodrome Forecast
Issued by NWS

Home | Current Version | Previous Version | Text Only | Print | Product List | Glossary On
Versions: 1 2 3 4 5 6 7 8 9 10 11 12 13 14 15 16 17 18
000
FTUS44 KBMX 301003 AAB
TAFTOI
TAF AMD
KTOI 301003Z 3010/3106 00000KT 1SM BR VV002
      TEMPO 3010/3012 1/4SM FG
     FM301200 00000KT 3SM BR SCT007 OVC015
      TEMPO 3012/3014 1SM BR OVC007
     FM301400 VRB03KT 6SM BR SCT025
     FM301700 05006KT P6SM SCT045
     FM310300 VRB02KT P6SM BKN250=

USA.gov is the U.S. government's official web portal to all federal, state and local government web resources and services.